createdAt,value
2023-02-22T00:00:36.928Z,7.74
2023-02-22T00:03:48.961Z,8.24
2023-02-22T00:06:50.380Z,7.55
2023-02-22T00:10:03.827Z,6.81
2023-02-22T00:13:07.506Z,6.43
2023-02-22T00:15:44.394Z,7.13
2023-02-22T00:18:32.448Z,7.84
2023-02-22T00:21:37.778Z,7.92
2023-02-22T00:24:25.470Z,7.16
2023-02-22T00:27:14.063Z,6.57
2023-02-22T00:30:23.644Z,6.53
2023-02-22T00:32:58.329Z,7.39
2023-02-22T00:35:30.543Z,7.89
2023-02-22T00:38:13.245Z,8.24
2023-02-22T00:40:55.688Z,7.72
2023-02-22T00:43:31.790Z,6.96
2023-02-22T00:46:03.998Z,6.69
2023-02-22T00:49:03.858Z,7.35
2023-02-22T00:51:54.873Z,8.17
2023-02-22T00:54:26.698Z,8.51
2023-02-22T00:56:58.393Z,8.14
2023-02-22T00:59:31.476Z,7.31
2023-02-22T01:02:30.893Z,6.71
2023-02-22T01:05:27.306Z,6.46
2023-02-22T01:08:18.728Z,7.33
2023-02-22T01:10:55.045Z,7.83
2023-02-22T01:13:40.272Z,8.08
2023-02-22T01:16:22.868Z,7.94
2023-02-22T01:19:12.776Z,7.91
2023-02-22T01:22:06.240Z,7.92
2023-02-22T01:25:18.142Z,8.06
2023-02-22T01:28:29.221Z,8.33
2023-02-22T01:31:15.328Z,8.52
2023-02-22T01:33:59.444Z,8.74
2023-02-22T01:36:33.643Z,8.90
2023-02-22T01:39:17.912Z,9.01
2023-02-22T01:41:53.959Z,9.13
2023-02-22T01:45:41.496Z,9.11
2023-02-22T01:49:10.388Z,7.85
2023-02-22T01:52:52.062Z,6.82
2023-02-22T01:55:35.015Z,6.31
2023-02-22T01:58:06.660Z,6.93
2023-02-22T02:00:55.821Z,7.56
2023-02-22T02:03:33.997Z,8.02
2023-02-22T02:06:12.027Z,8.26
2023-02-22T02:10:08.598Z,8.64
2023-02-22T02:13:31.935Z,8.87
2023-02-22T02:16:26.789Z,9.09
2023-02-22T02:20:10.069Z,9.19
2023-02-22T02:24:23.235Z,9.40
2023-02-22T02:27:26.614Z,9.63
2023-02-22T02:31:29.608Z,9.74
2023-02-22T02:35:22.171Z,9.89
2023-02-22T02:39:28.616Z,10.01
2023-02-22T02:41:59.790Z,10.12
2023-02-22T02:45:14.434Z,10.12
2023-02-22T02:48:22.313Z,9.04
2023-02-22T02:51:10.298Z,7.83
2023-02-22T02:54:24.767Z,7.09
2023-02-22T02:58:09.091Z,6.39
2023-02-22T03:01:08.184Z,5.83
2023-02-22T03:05:24.820Z,6.02
2023-02-22T03:08:19.497Z,7.39
2023-02-22T03:11:47.245Z,7.98
2023-02-22T03:15:22.507Z,8.39
2023-02-22T03:19:27.036Z,8.76
2023-02-22T03:23:35.066Z,9.09
2023-02-22T03:27:09.683Z,9.77
2023-02-22T03:30:12.629Z,9.87
2023-02-22T03:33:36.455Z,10.22
2023-02-22T03:37:24.121Z,10.56
2023-02-22T03:41:08.751Z,10.35
2023-02-22T03:44:59.465Z,8.66
2023-02-22T03:48:48.635Z,7.42
2023-02-22T03:52:22.728Z,6.54
2023-02-22T03:55:45.574Z,7.20
2023-02-22T03:58:48.280Z,8.44
2023-02-22T04:01:51.145Z,8.89
2023-02-22T04:04:25.140Z,9.09
2023-02-22T04:07:03.838Z,9.19
2023-02-22T04:10:24.967Z,9.21
2023-02-22T04:12:55.952Z,9.29
2023-02-22T04:15:27.357Z,9.27
2023-02-22T04:18:18.911Z,9.36
2023-02-22T04:20:51.773Z,9.42
2023-02-22T04:24:12.916Z,9.47
2023-02-22T04:26:46.440Z,9.28
2023-02-22T04:29:53.291Z,8.39
2023-02-22T04:32:33.671Z,7.24
2023-02-22T04:35:36.904Z,6.54
2023-02-22T04:38:11.276Z,5.88
2023-02-22T04:40:53.464Z,5.44
2023-02-22T04:43:32.043Z,5.07
2023-02-22T04:46:57.568Z,5.41
2023-02-22T04:50:11.753Z,6.44
2023-02-22T04:52:53.186Z,7.24
2023-02-22T04:55:47.797Z,7.62
2023-02-22T04:58:18.969Z,7.94
2023-02-22T05:00:53.797Z,8.17
2023-02-22T05:03:49.257Z,8.26
2023-02-22T05:06:25.682Z,8.45
2023-02-22T05:09:07.165Z,8.58
2023-02-22T05:11:54.585Z,8.70
2023-02-22T05:14:28.294Z,8.82
2023-02-22T05:16:59.819Z,8.93
2023-02-22T05:20:11.488Z,9.08
2023-02-22T05:23:37.458Z,9.21
2023-02-22T05:26:19.662Z,9.35
2023-02-22T05:29:24.990Z,9.39
2023-02-22T05:32:12.759Z,9.38
2023-02-22T05:34:55.142Z,9.45
2023-02-22T05:37:50.795Z,8.93
2023-02-22T05:40:49.888Z,7.73
2023-02-22T05:43:47.867Z,6.86
2023-02-22T05:46:27.447Z,6.19
2023-02-22T05:49:13.532Z,5.78
2023-02-22T05:51:42.252Z,6.24
2023-02-22T05:54:18.414Z,7.16
2023-02-22T05:57:06.340Z,7.80
2023-02-22T05:59:43.325Z,8.19
2023-02-22T06:02:29.631Z,8.50
2023-02-22T06:05:22.815Z,8.80
2023-02-22T06:08:04.594Z,9.04
2023-02-22T06:11:28.420Z,9.18
2023-02-22T06:14:46.107Z,9.34
2023-02-22T06:17:45.175Z,9.43
2023-02-22T06:21:04.976Z,9.51
2023-02-22T06:24:04.577Z,9.60
2023-02-22T06:27:37.570Z,9.70
2023-02-22T06:30:46.253Z,9.08
2023-02-22T06:33:40.874Z,7.61
2023-02-22T06:36:53.186Z,6.87
2023-02-22T06:40:04.716Z,6.77
2023-02-22T06:43:39.918Z,7.57
2023-02-22T06:47:26.947Z,8.30
2023-02-22T06:50:05.884Z,8.81
2023-02-22T06:53:16.945Z,9.09
2023-02-22T06:56:06.013Z,9.38
2023-02-22T06:59:46.701Z,9.60
2023-02-22T07:02:30.922Z,9.88
2023-02-22T07:06:03.678Z,9.50
2023-02-22T07:09:20.258Z,8.12
2023-02-22T07:12:31.498Z,7.48
2023-02-22T07:15:43.397Z,8.17
2023-02-22T07:19:39.839Z,8.75
2023-02-22T07:22:27.019Z,9.16
2023-02-22T07:26:29.030Z,9.19
2023-02-22T07:29:39.908Z,8.89
2023-02-22T07:32:38.989Z,8.01
2023-02-22T07:36:13.660Z,7.22
2023-02-22T07:39:48.571Z,7.68
2023-02-22T07:43:57.940Z,8.34
2023-02-22T07:48:06.720Z,8.78
2023-02-22T07:51:25.105Z,8.75
2023-02-22T07:55:12.981Z,7.86
2023-02-22T07:59:07.948Z,7.32
2023-02-22T08:02:56.510Z,8.71
2023-02-22T08:06:43.421Z,7.85
2023-02-22T08:10:35.766Z,7.19
2023-02-22T08:14:26.715Z,6.85
2023-02-22T08:17:53.508Z,8.47
2023-02-22T08:22:03.084Z,8.84
2023-02-22T08:25:47.947Z,8.01
2023-02-22T08:29:17.456Z,7.60
2023-02-22T08:32:52.747Z,7.27
2023-02-22T08:36:22.077Z,6.92
2023-02-22T08:40:07.489Z,6.41
2023-02-22T08:43:44.384Z,6.12
2023-02-22T08:47:07.125Z,6.71
2023-02-22T08:50:01.238Z,10.04
2023-02-22T08:53:16.443Z,9.80
2023-02-22T08:56:11.704Z,8.39
2023-02-22T08:59:51.228Z,7.63
2023-02-22T09:02:43.159Z,6.99
2023-02-22T09:06:34.619Z,6.77
2023-02-22T09:09:47.363Z,6.61
2023-02-22T09:12:45.439Z,6.58
2023-02-22T09:16:05.154Z,6.48
2023-02-22T09:18:44.103Z,6.40
2023-02-22T09:22:00.688Z,6.38
2023-02-22T09:25:15.949Z,6.20
2023-02-22T09:28:08.413Z,6.05
2023-02-22T09:31:01.162Z,5.93
2023-02-22T09:33:42.359Z,5.76
2023-02-22T09:36:17.360Z,5.65
2023-02-22T09:39:14.722Z,5.61
2023-02-22T09:43:01.221Z,5.63
2023-02-22T09:46:42.320Z,5.76
2023-02-22T09:50:50.797Z,5.96
2023-02-22T09:54:14.643Z,6.12
2023-02-22T09:57:31.124Z,6.12
2023-02-22T10:00:54.074Z,6.09
2023-02-22T10:05:02.384Z,6.04
2023-02-22T10:08:08.154Z,6.05
2023-02-22T10:11:58.863Z,5.98
2023-02-22T10:15:22.841Z,5.96
2023-02-22T10:19:05.354Z,5.91
2023-02-22T10:23:03.128Z,5.87
2023-02-22T10:26:29.156Z,5.65
2023-02-22T10:30:23.807Z,5.55
2023-02-22T10:33:53.774Z,5.44
2023-02-22T10:37:44.773Z,5.38
2023-02-22T10:41:01.272Z,5.31
2023-02-22T10:43:52.209Z,5.33
2023-02-22T10:46:53.756Z,5.45
2023-02-22T10:49:53.688Z,5.52
2023-02-22T10:53:19.579Z,5.53
2023-02-22T10:57:05.098Z,5.57
2023-02-22T11:00:48.221Z,5.55
2023-02-22T11:03:28.273Z,5.57
2023-02-22T11:06:30.647Z,5.59
2023-02-22T11:10:01.408Z,5.65
2023-02-22T11:13:31.595Z,5.84
2023-02-22T11:17:10.041Z,5.96
2023-02-22T11:21:11.596Z,6.15
2023-02-22T11:28:51.164Z,6.19
2023-02-22T11:32:14.673Z,6.18
2023-02-22T11:35:46.367Z,6.20
2023-02-22T11:39:17.751Z,6.16
2023-02-22T11:43:16.748Z,6.18
2023-02-22T11:46:47.292Z,6.30
2023-02-22T11:50:37.585Z,6.29
2023-02-22T11:53:54.590Z,6.30
2023-02-22T11:58:00.560Z,6.28
2023-02-22T12:01:23.598Z,6.18
2023-02-22T12:05:30.403Z,6.23
2023-02-22T12:09:27.479Z,6.37
2023-02-22T12:12:52.777Z,6.33
2023-02-22T12:16:15.820Z,6.31
2023-02-22T12:20:24.967Z,6.23
2023-02-22T12:23:54.542Z,6.35
2023-02-22T12:26:41.304Z,6.32
2023-02-22T12:30:22.742Z,6.34
2023-02-22T12:32:59.143Z,6.29
2023-02-22T12:35:42.882Z,6.26
2023-02-22T12:38:52.306Z,6.33
2023-02-22T12:41:49.312Z,6.37
2023-02-22T12:45:32.201Z,6.36
2023-02-22T12:49:51.308Z,6.31
2023-02-22T12:54:06.275Z,6.17
2023-02-22T12:57:44.982Z,6.17
2023-02-22T13:01:17.899Z,6.24
2023-02-22T13:04:46.662Z,6.22
2023-02-22T13:07:59.793Z,6.24
2023-02-22T13:11:12.811Z,6.17
2023-02-22T13:14:38.121Z,6.07
2023-02-22T13:18:46.544Z,6.06
2023-02-22T13:22:06.328Z,5.96
2023-02-22T13:25:04.809Z,5.99
2023-02-22T13:27:52.512Z,5.98
2023-02-22T13:30:45.564Z,5.97
2023-02-22T13:34:32.305Z,5.91
2023-02-22T13:38:05.233Z,5.86
2023-02-22T13:41:42.700Z,5.83
2023-02-22T13:46:02.505Z,5.82
2023-02-22T13:49:55.751Z,5.75
2023-02-22T13:53:22.968Z,5.66
2023-02-22T13:56:23.545Z,5.65
2023-02-22T13:59:55.260Z,5.65
2023-02-22T14:03:40.986Z,5.66
2023-02-22T14:07:29.345Z,5.61
2023-02-22T14:11:44.631Z,5.67
2023-02-22T14:14:36.659Z,5.64
2023-02-22T14:18:17.443Z,5.57
2023-02-22T14:21:20.554Z,5.53
2023-02-22T14:23:53.409Z,5.52
2023-02-22T14:26:55.686Z,5.44
2023-02-22T14:29:39.111Z,5.38
2023-02-22T14:33:04.363Z,5.31
2023-02-22T14:36:18.181Z,5.20
2023-02-22T14:39:00.672Z,5.00
2023-02-22T14:41:46.684Z,4.82
2023-02-22T14:44:43.257Z,4.77
2023-02-22T14:47:33.376Z,4.71
2023-02-22T14:50:59.441Z,4.64
2023-02-22T14:53:48.078Z,4.59
2023-02-22T14:57:23.837Z,4.53
2023-02-22T15:00:35.567Z,4.45
2023-02-22T15:04:16.249Z,4.36
2023-02-22T15:07:02.592Z,4.23
2023-02-22T15:09:46.683Z,4.31
2023-02-22T15:12:25.043Z,6.40
2023-02-22T15:15:20.167Z,7.93
2023-02-22T15:18:12.521Z,7.01
2023-02-22T15:20:49.210Z,6.25
2023-02-22T15:23:50.523Z,5.66
2023-02-22T15:27:01.056Z,5.11
2023-02-22T15:30:32.302Z,4.76
2023-02-22T15:34:32.341Z,4.43
2023-02-22T15:37:47.433Z,4.12
2023-02-22T15:40:34.966Z,3.96
2023-02-22T15:43:28.779Z,3.83
2023-02-22T15:46:01.944Z,3.76
2023-02-22T15:49:23.500Z,3.65
2023-02-22T15:52:19.798Z,3.57
2023-02-22T15:55:31.568Z,3.47
2023-02-22T15:58:23.853Z,3.42
2023-02-22T16:01:11.202Z,3.39
2023-02-22T16:03:52.937Z,3.37
2023-02-22T16:07:33.642Z,3.33
2023-02-22T16:10:09.251Z,3.30
2023-02-22T16:13:30.585Z,3.95
2023-02-22T16:17:36.848Z,7.35
2023-02-22T16:21:04.922Z,7.43
2023-02-22T16:24:16.453Z,6.08
2023-02-22T16:27:14.581Z,5.21
2023-02-22T16:30:43.326Z,4.64
2023-02-22T16:33:22.504Z,4.18
2023-02-22T16:36:56.117Z,3.90
2023-02-22T16:39:51.954Z,3.60
2023-02-22T16:42:29.222Z,3.48
2023-02-22T16:45:03.033Z,5.08
2023-02-22T16:48:05.802Z,7.24
2023-02-22T16:50:34.491Z,6.82
2023-02-22T16:53:23.686Z,5.56
2023-02-22T16:56:12.516Z,4.64
2023-02-22T16:58:47.133Z,4.09
2023-02-22T17:02:09.476Z,3.66
2023-02-22T17:04:43.587Z,3.25
2023-02-22T17:07:30.971Z,2.99
2023-02-22T17:10:16.798Z,2.82
2023-02-22T17:12:47.337Z,3.44
2023-02-22T17:15:41.899Z,5.26
2023-02-22T17:18:21.456Z,5.18
2023-02-22T17:20:51.267Z,4.43
2023-02-22T17:23:25.070Z,3.88
2023-02-22T17:26:03.577Z,3.49
2023-02-22T17:28:55.517Z,3.20
2023-02-22T17:31:26.582Z,2.96
2023-02-22T17:34:18.038Z,2.77
2023-02-22T17:36:54.243Z,2.60
2023-02-22T17:39:28.395Z,2.44
2023-02-22T17:42:17.414Z,2.32
2023-02-22T17:44:51.073Z,2.24
2023-02-22T17:47:19.392Z,2.19
2023-02-22T17:49:49.204Z,2.15
2023-02-22T17:52:20.572Z,2.12
2023-02-22T17:54:51.416Z,2.19
2023-02-22T17:57:20.071Z,3.38
2023-02-22T17:59:51.929Z,4.69
2023-02-22T18:02:22.867Z,5.42
2023-02-22T18:04:57.184Z,5.48
2023-02-22T18:07:25.664Z,4.76
2023-02-22T18:10:13.241Z,3.86
2023-02-22T18:13:00.616Z,3.36
2023-02-22T18:15:40.010Z,2.97
2023-02-22T18:18:43.824Z,2.72
2023-02-22T18:21:16.441Z,2.48
2023-02-22T18:23:54.025Z,2.34
2023-02-22T18:26:23.635Z,2.31
2023-02-22T18:28:57.170Z,3.37
2023-02-22T18:31:36.307Z,4.68
2023-02-22T18:34:13.177Z,5.33
2023-02-22T18:36:44.179Z,5.24
2023-02-22T18:39:17.793Z,4.51
2023-02-22T18:41:48.953Z,3.86
2023-02-22T18:44:22.023Z,3.33
2023-02-22T18:46:54.213Z,2.95
2023-02-22T18:49:31.281Z,2.60
2023-02-22T18:52:05.741Z,2.36
2023-02-22T18:54:42.872Z,2.23
2023-02-22T18:57:17.079Z,2.88
2023-02-22T18:59:50.126Z,3.84
2023-02-22T19:02:21.515Z,4.54
2023-02-22T19:04:50.546Z,4.67
2023-02-22T19:07:23.285Z,4.00
2023-02-22T19:09:58.180Z,3.35
2023-02-22T19:12:33.680Z,2.87
2023-02-22T19:15:02.306Z,2.76
2023-02-22T19:17:42.816Z,3.60
2023-02-22T19:20:14.683Z,4.41
2023-02-22T19:23:02.393Z,4.38
2023-02-22T19:25:33.744Z,3.76
2023-02-22T19:28:28.044Z,3.22
2023-02-22T19:31:33.650Z,2.74
2023-02-22T19:34:24.526Z,3.17
2023-02-22T19:37:12.519Z,4.31
2023-02-22T19:39:54.514Z,5.27
2023-02-22T19:42:36.362Z,5.42
2023-02-22T19:45:08.819Z,4.42
2023-02-22T19:48:10.440Z,3.62
2023-02-22T19:51:27.778Z,2.91
2023-02-22T19:54:24.612Z,2.46
2023-02-22T19:57:09.982Z,2.73
2023-02-22T19:59:55.049Z,3.93
2023-02-22T20:02:31.721Z,4.79
2023-02-22T20:05:16.831Z,5.23
2023-02-22T20:07:58.998Z,5.39
2023-02-22T20:10:34.505Z,4.84
2023-02-22T20:13:21.899Z,3.93
2023-02-22T20:15:54.601Z,3.19
2023-02-22T20:19:13.854Z,2.61
2023-02-22T20:21:44.746Z,2.91
2023-02-22T20:24:36.705Z,4.51
2023-02-22T20:27:15.280Z,5.75
2023-02-22T20:30:32.304Z,5.89
2023-02-22T20:33:19.260Z,4.57
2023-02-22T20:35:59.375Z,3.45
2023-02-22T20:38:27.960Z,2.86
2023-02-22T20:40:56.240Z,2.88
2023-02-22T20:43:35.056Z,3.95
2023-02-22T20:46:13.648Z,4.21
2023-02-22T20:49:08.675Z,3.31
2023-02-22T20:51:39.493Z,2.71
2023-02-22T20:54:12.449Z,3.19
2023-02-22T20:56:44.888Z,4.17
2023-02-22T20:59:18.289Z,4.68
2023-02-22T21:01:50.512Z,3.92
2023-02-22T21:04:22.159Z,3.16
2023-02-22T21:06:53.240Z,2.49
2023-02-22T21:09:24.165Z,2.85
2023-02-22T21:11:52.442Z,3.74
2023-02-22T21:14:25.529Z,4.06
2023-02-22T21:16:54.289Z,3.41
2023-02-22T21:19:30.784Z,2.72
2023-02-22T21:22:08.430Z,2.96
2023-02-22T21:24:49.355Z,3.89
2023-02-22T21:27:32.499Z,3.95
2023-02-22T21:30:13.081Z,3.21
2023-02-22T21:32:44.930Z,2.75
2023-02-22T21:35:18.219Z,3.71
2023-02-22T21:37:46.758Z,4.66
2023-02-22T21:40:19.327Z,5.43
2023-02-22T21:42:56.329Z,4.95
2023-02-22T21:45:26.215Z,3.91
2023-02-22T21:48:05.485Z,3.17
2023-02-22T21:50:37.866Z,2.59
2023-02-22T21:53:09.808Z,2.60
2023-02-22T21:55:46.555Z,3.69
2023-02-22T21:58:20.388Z,4.60
2023-02-22T22:00:51.018Z,5.06
2023-02-22T22:03:22.574Z,5.34
2023-02-22T22:05:51.360Z,5.56
2023-02-22T22:08:27.725Z,5.45
2023-02-22T22:11:20.704Z,4.54
2023-02-22T22:13:57.000Z,3.64
2023-02-22T22:16:34.737Z,3.07
2023-02-22T22:19:32.502Z,2.59
2023-02-22T22:22:28.415Z,2.17
2023-02-22T22:25:00.320Z,1.87
2023-02-22T22:27:32.651Z,1.69
2023-02-22T22:30:05.432Z,1.54
2023-02-22T22:32:35.120Z,1.40
2023-02-22T22:35:20.087Z,1.31
2023-02-22T22:37:58.619Z,1.35
2023-02-22T22:40:32.833Z,2.58
2023-02-22T22:43:14.213Z,4.06
2023-02-22T22:46:07.446Z,5.22
2023-02-22T22:48:47.026Z,5.68
2023-02-22T22:51:27.885Z,5.79
2023-02-22T22:54:08.552Z,5.24
2023-02-22T22:56:43.480Z,4.06
2023-02-22T22:59:15.447Z,3.50
2023-02-22T23:01:46.728Z,4.00
2023-02-22T23:04:29.278Z,4.70
2023-02-22T23:06:57.677Z,5.22
2023-02-22T23:09:41.720Z,5.49
2023-02-22T23:12:37.438Z,5.66
2023-02-22T23:15:13.994Z,5.78
2023-02-22T23:17:59.314Z,5.50
2023-02-22T23:20:30.437Z,4.42
2023-02-22T23:23:16.011Z,3.57
2023-02-22T23:26:19.429Z,3.54
2023-02-22T23:28:59.367Z,4.43
2023-02-22T23:32:07.425Z,4.91
2023-02-22T23:34:49.691Z,5.24
2023-02-22T23:37:27.053Z,5.24
2023-02-22T23:40:01.898Z,5.34
2023-02-22T23:43:32.295Z,5.69
2023-02-22T23:46:10.844Z,5.36
2023-02-22T23:49:02.128Z,4.25
2023-02-22T23:52:03.914Z,3.25
2023-02-22T23:54:56.655Z,2.98
2023-02-22T23:57:33.535Z,3.70
